createdAt,value
2023-03-23T15:58:44.129Z,0.60
2023-03-23T15:59:47.761Z,0.70
2023-03-23T16:00:52.359Z,0.50
2023-03-23T16:01:55.442Z,0.73
2023-03-23T16:03:02.730Z,0.40
2023-03-23T16:04:07.407Z,0.50
2023-03-23T16:05:13.404Z,0.60
2023-03-23T16:06:25.174Z,0.50
2023-03-23T16:07:28.243Z,0.60
2023-03-23T16:08:29.997Z,0.40
2023-03-23T16:09:33.159Z,0.68
2023-03-23T16:10:34.804Z,0.30
2023-03-23T16:11:37.791Z,0.55
2023-03-23T16:12:39.359Z,0.40
2023-03-23T16:13:42.219Z,0.50
2023-03-23T16:14:44.694Z,0.40
2023-03-23T16:15:48.130Z,0.43
2023-03-23T16:16:53.110Z,0.50
2023-03-23T16:17:54.796Z,0.50
2023-03-23T16:18:57.797Z,1.05
2023-03-23T16:19:59.325Z,0.50
2023-03-23T16:21:05.944Z,0.40
2023-03-23T16:22:08.759Z,0.57
2023-03-23T16:23:11.275Z,0.47
2023-03-23T16:24:13.698Z,0.50
2023-03-23T16:25:18.889Z,0.40
2023-03-23T16:26:21.422Z,0.50
2023-03-23T16:27:23.680Z,0.50
2023-03-23T16:28:26.310Z,0.55
2023-03-23T16:29:43.397Z,0.50
2023-03-23T16:30:50.432Z,0.63
2023-03-23T16:31:53.832Z,0.40
2023-03-23T16:32:57.900Z,0.43
2023-03-23T16:33:59.891Z,0.60
2023-03-23T16:35:02.792Z,0.57
2023-03-23T16:36:04.891Z,0.77
2023-03-23T16:37:10.365Z,0.45
2023-03-23T16:38:13.866Z,0.65
2023-03-23T16:39:18.954Z,0.40
2023-03-23T16:40:21.700Z,0.60
2023-03-23T16:41:24.228Z,0.50
2023-03-23T16:42:25.891Z,0.50
2023-03-23T16:43:28.578Z,0.50
2023-03-23T16:44:31.262Z,0.50
2023-03-23T16:45:34.079Z,0.50
2023-03-23T16:46:35.882Z,0.70
2023-03-23T16:47:43.451Z,0.60
2023-03-23T16:48:46.027Z,0.60
2023-03-23T16:49:47.552Z,0.60
2023-03-23T16:50:50.322Z,0.45
2023-03-23T16:51:55.708Z,0.73
2023-03-23T16:52:57.611Z,0.57
2023-03-23T16:54:00.267Z,0.60
2023-03-23T16:55:02.030Z,0.43
2023-03-23T16:56:05.544Z,0.63
2023-03-23T16:57:07.679Z,0.65
2023-03-23T16:58:16.941Z,0.50
2023-03-23T16:59:20.116Z,0.70
2023-03-23T17:00:23.184Z,0.73
2023-03-23T17:01:27.757Z,0.50
2023-03-23T17:02:29.459Z,0.50
2023-03-23T17:03:33.594Z,0.60
2023-03-23T17:04:35.227Z,0.52
2023-03-23T17:05:38.849Z,0.50
2023-03-23T17:06:40.395Z,0.57
2023-03-23T17:07:43.661Z,0.60
2023-03-23T17:08:45.353Z,0.60
2023-03-23T17:09:48.065Z,0.40
2023-03-23T17:10:49.676Z,0.73
2023-03-23T17:11:52.295Z,0.70
2023-03-23T17:12:55.617Z,0.80
2023-03-23T17:13:58.173Z,0.70
2023-03-23T17:14:59.675Z,0.80
2023-03-23T17:16:02.137Z,0.60
2023-03-23T17:17:03.749Z,0.57
2023-03-23T17:18:06.973Z,0.45
2023-03-23T17:19:10.038Z,0.60
2023-03-23T17:20:15.555Z,0.60
2023-03-23T17:21:17.242Z,0.93
2023-03-23T17:22:20.116Z,0.60
2023-03-23T17:23:22.866Z,0.65
2023-03-23T17:24:24.877Z,0.63
2023-03-23T17:25:27.642Z,0.65
2023-03-23T17:26:29.268Z,0.60
2023-03-23T17:27:31.855Z,0.60
2023-03-23T17:28:34.411Z,0.60
2023-03-23T17:29:36.388Z,0.55
2023-03-23T17:30:41.479Z,0.70
2023-03-23T17:31:43.098Z,0.50
2023-03-23T17:32:47.362Z,0.70
2023-03-23T17:33:49.637Z,0.70
2023-03-23T17:34:54.211Z,0.70
2023-03-23T17:35:59.509Z,0.82
2023-03-23T17:37:01.197Z,0.60
2023-03-23T17:38:03.781Z,0.60
2023-03-23T17:39:06.602Z,0.82
2023-03-23T17:40:10.513Z,0.68
2023-03-23T17:41:13.426Z,0.70
2023-03-23T17:42:15.028Z,0.75
2023-03-23T17:43:17.576Z,0.57
2023-03-23T17:44:19.265Z,0.60
2023-03-23T17:45:21.760Z,0.80
2023-03-23T17:46:23.424Z,1.08
2023-03-23T17:47:25.961Z,1.20
2023-03-23T17:48:27.560Z,1.27
2023-03-23T17:49:30.835Z,1.00
2023-03-23T17:50:33.925Z,1.00
2023-03-23T17:51:36.706Z,0.85
2023-03-23T17:52:38.273Z,1.52
2023-03-23T17:53:40.938Z,1.05
2023-03-23T17:54:42.725Z,1.20
2023-03-23T17:55:46.143Z,1.20
2023-03-23T17:56:51.189Z,1.40
2023-03-23T17:57:53.832Z,1.83
2023-03-23T17:58:55.385Z,1.20
2023-03-23T17:59:57.895Z,1.05
2023-03-23T18:00:59.483Z,0.80
2023-03-23T18:02:02.050Z,1.00
2023-03-23T18:03:03.678Z,0.75
2023-03-23T18:04:06.581Z,0.50
2023-03-23T18:05:09.438Z,0.90
2023-03-23T18:06:13.397Z,0.70
2023-03-23T18:07:16.235Z,0.85
2023-03-23T18:08:18.886Z,0.63
2023-03-23T18:09:20.447Z,0.73
2023-03-23T18:10:22.934Z,0.60
2023-03-23T18:11:25.399Z,0.70
2023-03-23T18:12:28.033Z,0.95
2023-03-23T18:13:32.653Z,0.63
2023-03-23T18:14:35.630Z,0.77
2023-03-23T18:15:39.248Z,1.00
2023-03-23T18:16:44.933Z,0.95
2023-03-23T18:17:48.224Z,0.68
2023-03-23T18:18:51.014Z,0.65
2023-03-23T18:19:54.816Z,0.80
2023-03-23T18:21:01.623Z,0.77
2023-03-23T18:22:10.615Z,0.70
2023-03-23T18:23:13.329Z,0.70
2023-03-23T18:24:16.009Z,0.90
2023-03-23T18:25:17.844Z,0.70
2023-03-23T18:26:22.124Z,1.02
2023-03-23T18:27:24.697Z,0.85
2023-03-23T18:28:26.315Z,0.80
2023-03-23T18:29:28.758Z,0.73
2023-03-23T18:30:30.700Z,0.70
2023-03-23T18:31:34.147Z,0.80
2023-03-23T18:32:36.054Z,0.80
2023-03-23T18:33:39.050Z,0.65
2023-03-23T18:34:41.978Z,0.70
2023-03-23T18:35:44.369Z,0.80
2023-03-23T18:36:47.579Z,0.50
2023-03-23T18:37:50.642Z,0.80
2023-03-23T18:38:56.698Z,0.80
2023-03-23T18:39:59.437Z,0.73
2023-03-23T18:41:09.028Z,0.82
2023-03-23T18:42:11.576Z,0.70
2023-03-23T18:43:13.624Z,1.00
2023-03-23T18:44:28.024Z,0.85
2023-03-23T18:45:29.600Z,1.40
2023-03-23T18:46:32.228Z,1.40
2023-03-23T18:47:34.514Z,1.20
2023-03-23T18:48:37.560Z,1.58
2023-03-23T18:49:40.372Z,1.17
2023-03-23T18:50:46.707Z,1.55
2023-03-23T18:51:49.324Z,1.50
2023-03-23T18:52:52.345Z,1.00
2023-03-23T18:53:54.959Z,1.40
2023-03-23T18:54:56.821Z,1.40
2023-03-23T18:56:06.580Z,1.75
2023-03-23T18:57:09.181Z,1.85
2023-03-23T18:58:11.719Z,1.63
2023-03-23T18:59:14.291Z,1.55
2023-03-23T19:00:16.870Z,1.60
2023-03-23T19:01:19.755Z,1.50
2023-03-23T19:02:21.898Z,1.67
2023-03-23T19:03:24.838Z,1.80
2023-03-23T19:04:31.661Z,1.80
2023-03-23T19:05:35.210Z,1.45
2023-03-23T19:06:37.641Z,1.52
2023-03-23T19:07:39.640Z,1.55
2023-03-23T19:08:45.328Z,1.50
2023-03-23T19:09:48.326Z,1.17
2023-03-23T19:10:49.866Z,1.15
2023-03-23T19:11:52.400Z,1.50
2023-03-23T19:12:57.768Z,1.10
2023-03-23T19:14:02.818Z,1.33
2023-03-23T19:15:07.108Z,1.30
2023-03-23T19:16:09.703Z,1.50
2023-03-23T19:17:11.349Z,1.30
2023-03-23T19:18:14.169Z,1.77
2023-03-23T19:19:16.927Z,1.75
2023-03-23T19:20:30.240Z,1.38
2023-03-23T19:21:46.842Z,1.98
2023-03-23T19:22:49.355Z,1.65
2023-03-23T19:23:53.187Z,1.00
2023-03-23T19:24:54.782Z,1.20
2023-03-23T19:25:57.853Z,1.30
2023-03-23T19:26:59.922Z,1.33
2023-03-23T19:29:26.007Z,1.10
2023-03-23T19:30:29.273Z,1.10
2023-03-23T19:31:31.697Z,1.10
2023-03-23T19:32:34.376Z,0.80
2023-03-23T19:33:36.079Z,1.00
2023-03-23T19:34:39.536Z,1.13
2023-03-23T19:35:42.467Z,1.20
2023-03-23T19:36:54.509Z,0.90
2023-03-23T19:37:57.809Z,0.93
2023-03-23T19:39:02.853Z,1.00
2023-03-23T19:40:20.952Z,1.08
2023-03-23T19:41:29.487Z,1.10
2023-03-23T19:42:31.583Z,1.13
2023-03-23T19:43:34.271Z,1.15
2023-03-23T19:44:36.385Z,0.95
2023-03-23T19:45:41.830Z,1.25
2023-03-23T19:46:45.362Z,1.83
2023-03-23T19:47:47.058Z,2.10
2023-03-23T19:48:50.323Z,1.95
2023-03-23T19:49:51.839Z,2.03
2023-03-23T19:50:55.780Z,1.67
2023-03-23T19:52:08.888Z,1.50
2023-03-23T19:53:13.571Z,1.40
2023-03-23T19:54:16.600Z,1.50
2023-03-23T19:55:19.490Z,1.38
2023-03-23T19:56:21.698Z,1.30
2023-03-23T19:57:24.536Z,1.40
2023-03-23T19:58:27.259Z,1.25
2023-03-23T19:59:29.818Z,1.40
2023-03-23T20:00:34.105Z,1.40
2023-03-23T20:01:37.681Z,1.40
2023-03-23T20:02:39.928Z,1.30
2023-03-23T20:03:43.384Z,1.70
2023-03-23T20:04:46.177Z,1.60
2023-03-23T20:05:49.565Z,1.30
2023-03-23T20:06:52.437Z,1.60
2023-03-23T20:07:55.554Z,1.20
2023-03-23T20:09:00.201Z,1.30
2023-03-23T20:10:06.176Z,1.20
2023-03-23T20:11:13.528Z,0.98
2023-03-23T20:12:16.810Z,1.35
2023-03-23T20:13:19.330Z,1.38
2023-03-23T20:14:20.981Z,1.02
2023-03-23T20:15:24.442Z,1.50
2023-03-23T20:16:26.384Z,1.50
2023-03-23T20:17:29.022Z,1.45
2023-03-23T20:18:32.073Z,1.20
2023-03-23T20:19:34.577Z,1.30
2023-03-23T20:20:39.011Z,1.30
2023-03-23T20:21:40.697Z,1.52
2023-03-23T20:22:43.512Z,1.50
2023-03-23T20:23:45.489Z,1.90
2023-03-23T20:24:56.761Z,1.48
2023-03-23T20:27:08.012Z,1.35
2023-03-23T20:28:09.745Z,1.60
2023-03-23T20:29:12.887Z,1.80
2023-03-23T20:30:14.593Z,1.30
2023-03-23T20:31:23.454Z,1.50
2023-03-23T20:32:26.244Z,1.58
2023-03-23T20:33:30.481Z,1.60
2023-03-23T20:34:32.123Z,1.60
2023-03-23T20:35:34.604Z,1.55
2023-03-23T20:36:40.555Z,1.33
2023-03-23T20:37:52.632Z,1.42
2023-03-23T20:38:54.227Z,1.38
2023-03-23T20:39:57.168Z,1.50
2023-03-23T20:40:59.713Z,1.80
2023-03-23T20:42:05.877Z,1.65
2023-03-23T20:43:10.848Z,1.50
2023-03-23T20:44:15.588Z,1.60
2023-03-23T20:45:20.161Z,1.48
2023-03-23T20:46:22.044Z,1.77
2023-03-23T20:47:24.658Z,1.67
2023-03-23T20:48:28.344Z,1.70
2023-03-23T20:49:31.114Z,1.77
2023-03-23T20:50:34.131Z,2.00
2023-03-23T20:51:35.905Z,1.80
2023-03-23T20:52:40.140Z,1.30
2023-03-23T20:53:41.753Z,1.63
2023-03-23T20:54:44.685Z,1.65
2023-03-23T20:55:46.720Z,1.38
2023-03-23T20:56:50.070Z,1.60
2023-03-23T20:57:54.312Z,1.60
2023-03-23T20:58:56.157Z,1.58
2023-03-23T20:59:58.890Z,1.50
2023-03-23T21:01:03.019Z,1.67
2023-03-23T21:02:06.159Z,1.75
2023-03-23T21:03:08.468Z,1.45
2023-03-23T21:04:19.676Z,1.60
2023-03-23T21:05:22.426Z,1.27
2023-03-23T21:06:28.182Z,1.70
2023-03-23T21:07:30.764Z,1.48
2023-03-23T21:08:34.913Z,1.30
2023-03-23T21:09:37.487Z,1.58
2023-03-23T21:10:39.287Z,1.30
2023-03-23T21:11:42.528Z,1.20
2023-03-23T21:12:44.171Z,1.38
2023-03-23T21:13:49.159Z,1.20
2023-03-23T21:14:51.817Z,1.20
2023-03-23T21:15:53.740Z,1.30
2023-03-23T21:16:57.045Z,1.42
2023-03-23T21:17:59.089Z,1.30
2023-03-23T21:19:02.046Z,1.60
2023-03-23T21:20:05.320Z,1.13
2023-03-23T21:21:10.245Z,1.17
2023-03-23T21:22:14.675Z,1.23
2023-03-23T21:23:16.373Z,1.17
2023-03-23T21:24:22.178Z,0.88
2023-03-23T21:25:35.258Z,1.30
2023-03-23T21:26:38.774Z,0.90
2023-03-23T21:27:40.470Z,1.20
2023-03-23T21:28:43.050Z,1.20
2023-03-23T21:29:46.988Z,1.00
2023-03-23T21:30:50.973Z,1.20
2023-03-23T21:32:05.318Z,1.05
2023-03-23T21:33:13.045Z,1.85
2023-03-23T21:34:15.763Z,1.65
2023-03-23T21:35:17.634Z,1.20
2023-03-23T21:36:20.401Z,1.00
2023-03-23T21:37:21.921Z,1.08
2023-03-23T21:38:26.632Z,1.10
2023-03-23T21:39:30.385Z,1.00
2023-03-23T21:40:32.879Z,1.00
2023-03-23T21:41:42.375Z,1.27
2023-03-23T21:42:46.455Z,1.35
2023-03-23T21:43:48.366Z,1.15
2023-03-23T21:44:53.088Z,1.23
2023-03-23T21:45:56.324Z,1.10
2023-03-23T21:47:02.057Z,1.00
2023-03-23T21:48:04.158Z,1.10
2023-03-23T21:49:10.016Z,1.20
2023-03-23T21:50:11.892Z,1.00
2023-03-23T21:51:15.814Z,1.13
2023-03-23T21:52:18.359Z,1.30
2023-03-23T21:53:20.382Z,1.20
2023-03-23T21:54:22.982Z,1.00
2023-03-23T21:55:25.227Z,1.02
2023-03-23T21:56:28.878Z,1.20
2023-03-23T21:57:34.546Z,1.20
2023-03-23T21:58:37.334Z,1.23
2023-03-23T21:59:40.363Z,1.23
2023-03-23T22:00:46.205Z,1.02
2023-03-23T22:01:49.738Z,1.42
2023-03-23T22:02:51.677Z,1.40
2023-03-23T22:03:54.266Z,0.90
2023-03-23T22:04:56.580Z,1.27
2023-03-23T22:06:00.718Z,1.55
2023-03-23T22:07:02.197Z,1.38
2023-03-23T22:08:04.725Z,1.17
2023-03-23T22:09:06.955Z,1.10
2023-03-23T22:10:12.615Z,1.40
2023-03-23T22:11:16.406Z,1.17
2023-03-23T22:12:19.719Z,0.95
2023-03-23T22:13:21.205Z,1.10
2023-03-23T22:14:24.194Z,1.23
2023-03-23T22:15:28.089Z,1.20
2023-03-23T22:16:32.625Z,1.10
2023-03-23T22:17:37.732Z,1.00
2023-03-23T22:18:43.139Z,0.95
2023-03-23T22:19:46.153Z,1.20
2023-03-23T22:20:47.874Z,1.27
2023-03-23T22:21:50.397Z,1.02
2023-03-23T22:22:53.361Z,1.17
2023-03-23T22:23:57.728Z,1.20
2023-03-23T22:24:59.221Z,1.17
2023-03-23T22:26:01.856Z,1.25
2023-03-23T22:27:04.484Z,1.30
2023-03-23T22:28:06.461Z,1.20
2023-03-23T22:29:13.099Z,1.27
2023-03-23T22:30:16.344Z,1.10
2023-03-23T22:31:22.432Z,1.10
2023-03-23T22:32:25.410Z,1.20
2023-03-23T22:33:28.000Z,1.17
2023-03-23T22:34:29.870Z,1.05
2023-03-23T22:35:33.734Z,1.42
2023-03-23T22:36:36.650Z,1.15
2023-03-23T22:37:38.508Z,0.93
2023-03-23T22:38:43.667Z,1.08
2023-03-23T22:39:45.345Z,1.10
2023-03-23T22:40:55.813Z,1.17
2023-03-23T22:41:58.263Z,1.33
2023-03-23T22:43:01.080Z,0.80
2023-03-23T22:44:04.243Z,1.10
2023-03-23T22:45:09.004Z,1.00
2023-03-23T22:46:11.674Z,1.00
2023-03-23T22:47:13.840Z,1.17
2023-03-23T22:48:18.105Z,1.00
2023-03-23T22:49:19.802Z,0.90
2023-03-23T22:50:24.144Z,1.05
2023-03-23T22:51:25.806Z,1.13
2023-03-23T22:52:28.299Z,0.85
2023-03-23T22:53:30.318Z,1.13
2023-03-23T22:54:32.795Z,1.05
2023-03-23T22:55:34.464Z,1.00
2023-03-23T22:56:38.143Z,0.82
2023-03-23T22:57:39.892Z,0.93
2023-03-23T22:58:42.415Z,1.00
2023-03-23T22:59:47.799Z,0.90
2023-03-23T23:00:55.487Z,1.10
2023-03-23T23:01:58.180Z,0.90
2023-03-23T23:03:01.735Z,1.27
2023-03-23T23:04:07.080Z,0.90
2023-03-23T23:05:08.940Z,1.17
2023-03-23T23:06:12.493Z,0.93
2023-03-23T23:07:14.321Z,0.93
2023-03-23T23:08:18.279Z,1.08
2023-03-23T23:09:20.282Z,0.77
2023-03-23T23:10:22.953Z,1.17
2023-03-23T23:11:25.897Z,0.90
2023-03-23T23:12:35.145Z,0.95
2023-03-23T23:13:37.592Z,1.10
2023-03-23T23:14:40.681Z,1.00
2023-03-23T23:15:44.467Z,1.00
2023-03-23T23:16:48.264Z,1.10
2023-03-23T23:17:54.153Z,1.00
2023-03-23T23:18:56.823Z,1.02
2023-03-23T23:20:00.355Z,0.90
2023-03-23T23:21:08.269Z,0.80
2023-03-23T23:22:18.942Z,1.25
2023-03-23T23:23:22.809Z,1.02
2023-03-23T23:24:26.482Z,1.20
2023-03-23T23:25:30.516Z,1.02
2023-03-23T23:26:32.089Z,1.17
2023-03-23T23:27:35.089Z,1.10
2023-03-23T23:28:36.909Z,1.25
2023-03-23T23:29:40.637Z,1.10
2023-03-23T23:30:42.643Z,1.10
2023-03-23T23:31:45.161Z,1.13
2023-03-23T23:32:47.192Z,1.13
2023-03-23T23:33:50.440Z,1.23
2023-03-23T23:34:52.790Z,1.20
2023-03-23T23:35:56.933Z,1.30
2023-03-23T23:36:59.730Z,1.25
2023-03-23T23:38:01.340Z,1.00
2023-03-23T23:39:05.771Z,0.90
2023-03-23T23:40:09.328Z,1.15
2023-03-23T23:41:11.934Z,1.25
2023-03-23T23:42:13.493Z,1.00
2023-03-23T23:43:17.572Z,1.35
2023-03-23T23:44:19.136Z,1.30
2023-03-23T23:45:21.781Z,0.95
2023-03-23T23:46:23.358Z,1.20
2023-03-23T23:47:25.952Z,1.10
2023-03-23T23:48:27.578Z,1.13
2023-03-23T23:49:32.384Z,1.17
2023-03-23T23:50:34.660Z,1.10
2023-03-23T23:51:38.513Z,1.30
2023-03-23T23:52:42.531Z,1.17
2023-03-23T23:53:46.274Z,1.38
2023-03-23T23:54:48.193Z,1.15
2023-03-23T23:55:51.293Z,1.23
2023-03-23T23:56:53.079Z,1.27
2023-03-23T23:57:55.972Z,1.13
2023-03-23T23:58:58.307Z,1.20
